createdAt,value
2023-03-17T00:01:09.827Z,100746.31
2023-03-17T00:03:55.696Z,100738.53
2023-03-17T00:06:41.330Z,100734.22
2023-03-17T00:09:26.812Z,100736.81
2023-03-17T00:12:13.187Z,100731.63
2023-03-17T00:14:58.406Z,100729.91
2023-03-17T00:17:45.271Z,100741.09
2023-03-17T00:20:32.807Z,100736.78
2023-03-17T00:23:20.358Z,100729.88
2023-03-17T00:26:05.396Z,100727.31
2023-03-17T00:28:51.287Z,100720.41
2023-03-17T00:31:37.882Z,100720.38
2023-03-17T00:34:23.571Z,100715.22
2023-03-17T00:37:11.497Z,100713.53
2023-03-17T00:39:57.036Z,100716.13
2023-03-17T00:42:42.339Z,100716.09
2023-03-17T00:45:27.185Z,100716.09
2023-03-17T00:48:18.612Z,100708.38
2023-03-17T00:51:03.784Z,100704.03
2023-03-17T00:53:49.043Z,100710.06
2023-03-17T00:56:34.356Z,100701.47
2023-03-17T00:59:31.135Z,100688.53
2023-03-17T01:02:16.011Z,100681.66
2023-03-17T01:05:06.366Z,100686.81
2023-03-17T01:07:54.871Z,100696.28
2023-03-17T01:10:39.992Z,100698.00
2023-03-17T01:13:25.208Z,100691.97
2023-03-17T01:16:12.614Z,100688.50
2023-03-17T01:18:57.355Z,100689.38
2023-03-17T01:21:42.525Z,100677.31
2023-03-17T01:24:28.488Z,100679.00
2023-03-17T01:27:13.775Z,100677.28
2023-03-17T01:29:58.501Z,100670.41
2023-03-17T01:32:43.825Z,100667.81
2023-03-17T01:35:30.555Z,100670.41
2023-03-17T01:38:15.640Z,100672.13
2023-03-17T01:41:01.294Z,100666.09
2023-03-17T01:43:46.422Z,100657.50
2023-03-17T01:46:36.208Z,100660.94
2023-03-17T01:49:37.312Z,100659.19
2023-03-17T01:52:23.050Z,100658.38
2023-03-17T01:55:16.061Z,100657.50
2023-03-17T01:58:02.019Z,100663.53
2023-03-17T02:00:47.090Z,100651.47
2023-03-17T02:03:32.398Z,100661.81
2023-03-17T02:06:18.019Z,100667.81
2023-03-17T02:09:03.179Z,100665.22
2023-03-17T02:11:49.011Z,100669.53
2023-03-17T02:14:34.525Z,100662.63
2023-03-17T02:17:21.102Z,100663.50
2023-03-17T02:20:18.431Z,100666.06
2023-03-17T02:23:04.496Z,100666.03
2023-03-17T02:25:51.676Z,100669.47
2023-03-17T02:28:37.173Z,100673.78
2023-03-17T02:31:25.505Z,100661.75
2023-03-17T02:34:10.674Z,100656.53
2023-03-17T02:36:55.586Z,100654.81
2023-03-17T02:39:40.372Z,100639.31
2023-03-17T02:42:25.246Z,100650.50
2023-03-17T02:45:12.747Z,100659.94
2023-03-17T02:47:58.468Z,100651.31
2023-03-17T02:50:43.419Z,100648.75
2023-03-17T02:53:28.376Z,100643.56
2023-03-17T02:56:13.709Z,100637.56
2023-03-17T02:58:58.635Z,100624.63
2023-03-17T03:01:44.198Z,100629.81
2023-03-17T03:04:29.632Z,100616.84
2023-03-17T03:07:15.266Z,100622.03
2023-03-17T03:10:00.066Z,100639.25
2023-03-17T03:12:45.466Z,100635.78
2023-03-17T03:15:30.854Z,100647.84
2023-03-17T03:18:15.743Z,100647.81
2023-03-17T03:21:01.380Z,100661.59
2023-03-17T03:23:46.270Z,100659.84
2023-03-17T03:26:31.756Z,100667.59
2023-03-17T03:29:16.948Z,100665.03
2023-03-17T03:32:02.112Z,100661.56
2023-03-17T03:34:47.246Z,100658.13
2023-03-17T03:37:32.494Z,100664.19
2023-03-17T03:40:17.539Z,100671.03
2023-03-17T03:43:16.117Z,100671.91
2023-03-17T03:46:07.239Z,100672.78
2023-03-17T03:48:52.521Z,100656.41
2023-03-17T03:51:37.577Z,100661.56
2023-03-17T03:54:22.435Z,100657.22
2023-03-17T03:57:07.313Z,100648.63
2023-03-17T03:59:52.469Z,100643.47
2023-03-17T04:02:38.387Z,100650.31
2023-03-17T04:05:23.370Z,100642.56
2023-03-17T04:08:09.408Z,100639.13
2023-03-17T04:10:54.291Z,100637.44
2023-03-17T04:13:39.518Z,100631.41
2023-03-17T04:16:24.984Z,100626.22
2023-03-17T04:19:11.226Z,100620.19
2023-03-17T04:21:56.807Z,100627.03
2023-03-17T04:24:42.309Z,100624.47
2023-03-17T04:27:27.649Z,100625.31
2023-03-17T04:30:16.510Z,100608.09
2023-03-17T04:33:03.899Z,100625.28
2023-03-17T04:35:53.023Z,100616.72
2023-03-17T04:38:39.406Z,100615.00
2023-03-17T04:41:24.168Z,100616.69
2023-03-17T04:44:09.603Z,100619.19
2023-03-17T04:46:54.582Z,100608.84
2023-03-17T04:49:39.489Z,100606.25
2023-03-17T04:52:24.713Z,100598.53
2023-03-17T04:55:10.206Z,100596.81
2023-03-17T04:57:56.034Z,100579.63
2023-03-17T05:00:41.465Z,100575.38
2023-03-17T05:03:28.466Z,100582.25
2023-03-17T05:06:13.781Z,100578.81
2023-03-17T05:08:59.318Z,100577.03
2023-03-17T05:11:44.300Z,100589.88
2023-03-17T05:14:29.246Z,100585.59
2023-03-17T05:17:14.201Z,100583.88
2023-03-17T05:19:59.815Z,100584.66
2023-03-17T05:22:45.120Z,100587.25
2023-03-17T05:25:29.969Z,100589.78
2023-03-17T05:28:14.887Z,100596.66
2023-03-17T05:31:00.141Z,100590.69
2023-03-17T05:33:46.817Z,100588.09
2023-03-17T05:36:33.373Z,100586.34
2023-03-17T05:39:18.618Z,100583.75
2023-03-17T05:42:03.861Z,100577.75
2023-03-17T05:44:49.096Z,100575.16
2023-03-17T05:47:35.097Z,100584.56
2023-03-17T05:50:19.883Z,100580.34
2023-03-17T05:53:05.268Z,100591.44
2023-03-17T05:55:50.192Z,100601.72
2023-03-17T05:58:35.848Z,100598.28
2023-03-17T06:01:20.985Z,100582.03
2023-03-17T06:04:08.188Z,100570.00
2023-03-17T06:06:53.382Z,100564.00
2023-03-17T06:09:38.382Z,100569.16
2023-03-17T06:12:23.680Z,100572.66
2023-03-17T06:15:10.656Z,100562.38
2023-03-17T06:17:55.456Z,100570.94
2023-03-17T06:20:41.438Z,100573.59
2023-03-17T06:23:26.225Z,100562.44
2023-03-17T06:26:11.824Z,100558.13
2023-03-17T06:28:58.507Z,100552.97
2023-03-17T06:31:50.092Z,100553.84
2023-03-17T06:34:35.378Z,100547.88
2023-03-17T06:37:21.506Z,100549.56
2023-03-17T06:40:10.279Z,100547.00
2023-03-17T06:42:55.283Z,100556.47
2023-03-17T06:45:44.099Z,100569.34
2023-03-17T06:48:29.242Z,100559.03
2023-03-17T06:51:15.115Z,100560.75
2023-03-17T06:54:00.145Z,100552.16
2023-03-17T06:56:44.993Z,100550.44
2023-03-17T06:59:31.217Z,100558.19
2023-03-17T07:02:16.619Z,100556.47
2023-03-17T07:05:02.204Z,100560.78
2023-03-17T07:07:47.672Z,100556.50
2023-03-17T07:10:33.176Z,100554.78
2023-03-17T07:13:19.115Z,100540.19
2023-03-17T07:16:04.721Z,100553.13
2023-03-17T07:18:50.547Z,100555.78
2023-03-17T07:21:36.041Z,100561.00
2023-03-17T07:24:20.790Z,100561.88
2023-03-17T07:27:06.073Z,100556.72
2023-03-17T07:29:51.779Z,100546.38
2023-03-17T07:32:37.460Z,100547.22
2023-03-17T07:35:22.556Z,100541.19
2023-03-17T07:38:07.689Z,100552.34
2023-03-17T07:40:53.239Z,100556.56
2023-03-17T07:43:38.375Z,100543.63
2023-03-17T07:46:23.776Z,100548.72
2023-03-17T07:49:09.134Z,100544.28
2023-03-17T07:51:54.090Z,100544.19
2023-03-17T07:54:42.214Z,100545.66
2023-03-17T07:57:28.975Z,100535.06
2023-03-17T08:00:14.766Z,100532.28
2023-03-17T08:03:09.959Z,100538.97
2023-03-17T08:05:57.512Z,100542.34
2023-03-17T08:08:42.672Z,100531.84
2023-03-17T08:11:29.530Z,100539.44
2023-03-17T08:14:14.999Z,100534.94
2023-03-17T08:17:00.565Z,100534.81
2023-03-17T08:19:45.408Z,100525.59
2023-03-17T08:22:30.755Z,100526.28
2023-03-17T08:25:15.706Z,100535.31
2023-03-17T08:28:01.576Z,100522.06
2023-03-17T08:30:50.577Z,100519.09
2023-03-17T08:33:36.266Z,100518.00
2023-03-17T08:36:21.613Z,100503.31
2023-03-17T08:39:07.079Z,100506.41
2023-03-17T08:41:52.176Z,100496.66
2023-03-17T08:44:37.640Z,100500.56
2023-03-17T08:47:23.490Z,100513.25
2023-03-17T08:50:16.077Z,100501.66
2023-03-17T08:53:02.599Z,100501.28
2023-03-17T08:55:47.367Z,100512.19
2023-03-17T08:58:33.338Z,100518.97
2023-03-17T09:01:20.787Z,100521.63
2023-03-17T09:04:06.279Z,100510.88
2023-03-17T09:07:02.952Z,100508.66
2023-03-17T09:09:48.522Z,100516.16
2023-03-17T09:12:34.356Z,100509.84
2023-03-17T09:15:19.715Z,100520.50
2023-03-17T09:18:06.255Z,100512.34
2023-03-17T09:20:51.113Z,100511.22
2023-03-17T09:23:36.354Z,100512.78
2023-03-17T09:26:21.305Z,100510.84
2023-03-17T09:29:07.771Z,100504.09
2023-03-17T09:31:55.487Z,100499.97
2023-03-17T09:34:41.899Z,100496.88
2023-03-17T09:37:27.603Z,100492.91
2023-03-17T09:40:17.453Z,100495.22
2023-03-17T09:43:26.489Z,100495.09
2023-03-17T09:46:41.843Z,100491.09
2023-03-17T09:49:40.267Z,100478.03
2023-03-17T09:52:29.103Z,100471.13
2023-03-17T09:55:25.443Z,100476.69
2023-03-17T09:58:11.726Z,100463.94
2023-03-17T10:00:57.185Z,100464.22
2023-03-17T10:03:43.022Z,100471.88
2023-03-17T10:06:41.422Z,100463.03
2023-03-17T10:09:48.871Z,100464.75
2023-03-17T10:12:55.711Z,100464.19
2023-03-17T10:15:50.855Z,100472.31
2023-03-17T10:19:00.621Z,100469.66
2023-03-17T10:21:53.859Z,100467.03
2023-03-17T10:24:45.774Z,100464.06
2023-03-17T10:27:36.789Z,100468.03
2023-03-17T10:30:23.568Z,100465.41
2023-03-17T10:33:08.917Z,100469.03
2023-03-17T10:35:53.950Z,100463.56
2023-03-17T10:38:40.272Z,100457.84
2023-03-17T10:41:26.193Z,100463.06
2023-03-17T10:44:23.275Z,100452.28
2023-03-17T10:47:25.194Z,100449.31
2023-03-17T10:50:16.672Z,100454.31
2023-03-17T10:53:18.127Z,100453.56
2023-03-17T10:56:20.260Z,100457.16
2023-03-17T10:59:18.743Z,100455.47
2023-03-17T11:02:19.137Z,100455.56
2023-03-17T11:05:12.141Z,100453.03
2023-03-17T11:08:08.578Z,100449.06
2023-03-17T11:10:56.796Z,100451.06
2023-03-17T11:13:43.961Z,100446.06
2023-03-17T11:16:29.114Z,100443.97
2023-03-17T11:19:17.899Z,100438.03
2023-03-17T11:22:17.501Z,100438.44
2023-03-17T11:25:09.761Z,100448.38
2023-03-17T11:28:16.134Z,100447.28
2023-03-17T11:31:18.151Z,100445.16
2023-03-17T11:34:23.313Z,100441.06
2023-03-17T11:37:59.719Z,100441.34
2023-03-17T11:41:10.776Z,100436.97
2023-03-17T11:44:24.815Z,100432.84
2023-03-17T11:47:20.393Z,100435.69
2023-03-17T11:50:31.287Z,100420.41
2023-03-17T11:53:41.507Z,100424.00
2023-03-17T11:56:35.577Z,100410.16
2023-03-17T11:59:54.620Z,100401.50
2023-03-17T12:02:45.873Z,100396.44
2023-03-17T12:05:31.872Z,100397.75
2023-03-17T12:08:29.634Z,100399.06
2023-03-17T12:11:20.389Z,100387.22
2023-03-17T12:14:14.022Z,100386.41
2023-03-17T12:17:10.585Z,100384.84
2023-03-17T12:20:18.082Z,100395.56
2023-03-17T12:23:12.444Z,100404.56
2023-03-17T12:26:09.156Z,100397.44
2023-03-17T12:29:27.572Z,100392.94
2023-03-17T12:32:20.458Z,100394.22
2023-03-17T12:35:26.175Z,100391.41
2023-03-17T12:38:35.660Z,100394.75
2023-03-17T12:41:38.915Z,100384.09
2023-03-17T12:44:45.968Z,100374.09
2023-03-17T12:47:51.997Z,100369.38
2023-03-17T12:50:40.143Z,100373.72
2023-03-17T12:53:30.045Z,100373.47
2023-03-17T12:56:23.788Z,100362.75
2023-03-17T12:59:17.166Z,100369.03
2023-03-17T13:02:17.180Z,100368.88
2023-03-17T13:05:08.399Z,100370.53
2023-03-17T13:07:57.262Z,100369.66
2023-03-17T13:10:44.880Z,100364.31
2023-03-17T13:13:54.368Z,100356.66
2023-03-17T13:16:42.269Z,100344.75
2023-03-17T13:19:32.994Z,100356.06
2023-03-17T13:22:21.093Z,100345.16
2023-03-17T13:25:27.379Z,100349.75
2023-03-17T13:28:12.600Z,100346.28
2023-03-17T13:31:36.521Z,100356.13
2023-03-17T13:34:22.246Z,100340.16
2023-03-17T13:37:31.172Z,100345.59
2023-03-17T13:40:25.203Z,100337.34
2023-03-17T13:43:13.300Z,100347.19
2023-03-17T13:46:27.093Z,100337.34
2023-03-17T13:49:19.071Z,100329.34
2023-03-17T13:52:30.011Z,100329.25
2023-03-17T13:55:17.913Z,100330.72
2023-03-17T13:58:06.155Z,100324.16
2023-03-17T14:00:59.277Z,100321.72
2023-03-17T14:03:50.572Z,100330.59
2023-03-17T14:06:38.553Z,100322.28
2023-03-17T14:09:39.476Z,100329.84
2023-03-17T14:12:44.942Z,100319.47
2023-03-17T14:15:47.246Z,100313.75
2023-03-17T14:18:35.104Z,100306.38
2023-03-17T14:21:40.631Z,100312.75
2023-03-17T14:24:31.596Z,100307.50
2023-03-17T14:27:16.408Z,100305.47
2023-03-17T14:30:21.847Z,100313.47
2023-03-17T14:33:20.558Z,100310.47
2023-03-17T14:36:14.245Z,100300.94
2023-03-17T14:38:59.644Z,100296.03
2023-03-17T14:41:44.484Z,100299.13
2023-03-17T14:44:37.787Z,100298.56
2023-03-17T14:47:25.625Z,100289.97
2023-03-17T14:50:24.721Z,100287.75
2023-03-17T14:53:10.925Z,100287.25
2023-03-17T14:55:56.382Z,100288.25
2023-03-17T14:58:44.262Z,100292.63
2023-03-17T15:01:39.452Z,100287.56
2023-03-17T15:04:29.785Z,100290.94
2023-03-17T15:07:31.795Z,100279.97
2023-03-17T15:10:23.014Z,100279.66
2023-03-17T15:13:12.054Z,100278.28
2023-03-17T15:15:58.929Z,100277.91
2023-03-17T15:18:44.957Z,100267.78
2023-03-17T15:21:33.263Z,100273.81
2023-03-17T15:24:22.180Z,100269.03
2023-03-17T15:27:15.408Z,100272.53
2023-03-17T15:30:00.727Z,100269.91
2023-03-17T15:32:52.403Z,100269.84
2023-03-17T15:35:38.545Z,100267.13
2023-03-17T15:38:23.750Z,100256.81
2023-03-17T15:41:08.741Z,100247.06
2023-03-17T15:43:53.862Z,100246.06
2023-03-17T15:46:39.169Z,100240.25
2023-03-17T15:49:26.999Z,100237.00
2023-03-17T15:52:21.401Z,100229.69
2023-03-17T15:55:15.258Z,100243.69
2023-03-17T15:58:00.761Z,100245.56
2023-03-17T16:00:53.293Z,100256.84
2023-03-17T16:03:41.153Z,100258.28
2023-03-17T16:06:26.606Z,100260.16
2023-03-17T16:09:16.354Z,100262.41
2023-03-17T16:12:02.061Z,100275.03
2023-03-17T16:14:47.200Z,100271.47
2023-03-17T16:17:35.496Z,100261.88
2023-03-17T16:20:24.287Z,100259.41
2023-03-17T16:23:17.655Z,100247.63
2023-03-17T16:26:14.240Z,100249.63
2023-03-17T16:29:00.473Z,100247.44
2023-03-17T16:31:49.042Z,100248.38
2023-03-17T16:34:34.140Z,100244.13
2023-03-17T16:37:19.084Z,100253.31
2023-03-17T16:40:04.910Z,100257.53
2023-03-17T16:42:51.038Z,100256.19
2023-03-17T16:45:36.441Z,100262.91
2023-03-17T16:48:21.657Z,100256.31
2023-03-17T16:51:07.126Z,100252.97
2023-03-17T16:53:54.252Z,100249.22
2023-03-17T16:56:41.172Z,100243.72
2023-03-17T16:59:31.091Z,100244.09
2023-03-17T17:02:16.422Z,100250.63
2023-03-17T17:05:04.647Z,100255.94
2023-03-17T17:07:55.088Z,100251.13
2023-03-17T17:10:41.272Z,100247.75
2023-03-17T17:13:26.027Z,100253.53
2023-03-17T17:16:26.428Z,100250.72
2023-03-17T17:19:16.679Z,100242.63
2023-03-17T17:22:01.792Z,100257.66
2023-03-17T17:24:46.640Z,100249.28
2023-03-17T17:27:31.888Z,100256.38
2023-03-17T17:30:20.808Z,100244.91
2023-03-17T17:33:05.865Z,100248.97
2023-03-17T17:35:51.146Z,100250.94
2023-03-17T17:38:36.135Z,100259.19
2023-03-17T17:41:21.590Z,100252.28
2023-03-17T17:44:07.031Z,100260.16
2023-03-17T17:46:52.937Z,100257.22
2023-03-17T17:49:37.769Z,100255.06
2023-03-17T17:52:22.883Z,100260.50
2023-03-17T17:55:08.643Z,100259.69
2023-03-17T17:57:53.781Z,100265.94
2023-03-17T18:00:38.701Z,100260.16
2023-03-17T18:03:25.245Z,100270.09
2023-03-17T18:06:12.891Z,100272.06
2023-03-17T18:08:59.311Z,100275.41
2023-03-17T18:11:44.530Z,100288.56
2023-03-17T18:14:32.167Z,100291.34
2023-03-17T18:17:21.575Z,100291.63
2023-03-17T18:20:07.319Z,100303.66
2023-03-17T18:22:54.057Z,100309.03
2023-03-17T18:25:39.732Z,100309.47
2023-03-17T18:28:24.864Z,100309.59
2023-03-17T18:31:12.876Z,100313.00
2023-03-17T18:34:04.832Z,100313.22
2023-03-17T18:36:51.027Z,100320.16
2023-03-17T18:39:35.967Z,100318.78
2023-03-17T18:42:21.236Z,100317.50
2023-03-17T18:45:08.545Z,100326.00
2023-03-17T18:47:53.777Z,100314.47
2023-03-17T18:50:39.453Z,100313.44
2023-03-17T18:53:26.824Z,100307.59
2023-03-17T18:56:12.445Z,100309.38
2023-03-17T18:59:00.185Z,100301.03
2023-03-17T19:01:45.644Z,100302.13
2023-03-17T19:04:31.414Z,100300.13
2023-03-17T19:07:17.779Z,100295.28
2023-03-17T19:10:05.916Z,100291.91
2023-03-17T19:12:55.167Z,100289.41
2023-03-17T19:15:41.730Z,100289.41
2023-03-17T19:18:27.138Z,100288.88
2023-03-17T19:21:13.498Z,100283.59
2023-03-17T19:24:00.902Z,100275.94
2023-03-17T19:26:45.969Z,100274.50
2023-03-17T19:29:32.041Z,100271.38
2023-03-17T19:32:21.280Z,100260.00
2023-03-17T19:35:07.436Z,100247.91
2023-03-17T19:37:54.455Z,100249.75
2023-03-17T19:40:45.745Z,100241.50
2023-03-17T19:43:40.248Z,100247.03
2023-03-17T19:46:29.026Z,100263.16
2023-03-17T19:49:18.038Z,100268.16
2023-03-17T19:52:04.538Z,100254.16
2023-03-17T19:54:49.532Z,100261.97
2023-03-17T19:57:35.374Z,100256.28
2023-03-17T20:00:22.996Z,100256.50
2023-03-17T20:03:08.574Z,100251.88
2023-03-17T20:05:53.546Z,100255.69
2023-03-17T20:08:39.493Z,100253.19
2023-03-17T20:11:24.650Z,100258.53
2023-03-17T20:14:09.685Z,100250.47
2023-03-17T20:16:55.254Z,100248.66
2023-03-17T20:19:41.729Z,100249.38
2023-03-17T20:22:27.144Z,100250.34
2023-03-17T20:25:16.351Z,100253.88
2023-03-17T20:28:01.664Z,100258.91
2023-03-17T20:30:50.235Z,100259.34
2023-03-17T20:33:35.871Z,100266.25
2023-03-17T20:36:22.990Z,100253.66
2023-03-17T20:39:09.341Z,100261.25
2023-03-17T20:41:54.721Z,100260.72
2023-03-17T20:44:41.780Z,100273.88
2023-03-17T20:47:27.005Z,100267.81
2023-03-17T20:50:14.657Z,100271.22
2023-03-17T20:53:00.302Z,100270.53
2023-03-17T20:55:51.882Z,100260.78
2023-03-17T20:58:39.601Z,100270.59
2023-03-17T21:01:25.518Z,100269.00
2023-03-17T21:04:12.509Z,100272.53
2023-03-17T21:06:59.125Z,100271.50
2023-03-17T21:09:45.406Z,100261.75
2023-03-17T21:12:31.815Z,100255.56
2023-03-17T21:15:21.346Z,100264.31
2023-03-17T21:18:06.663Z,100260.78
2023-03-17T21:20:51.737Z,100261.78
2023-03-17T21:23:39.438Z,100260.09
2023-03-17T21:26:24.944Z,100259.19
2023-03-17T21:29:10.523Z,100262.03
2023-03-17T21:31:56.868Z,100261.19
2023-03-17T21:34:42.204Z,100253.56
2023-03-17T21:37:28.672Z,100260.44
2023-03-17T21:40:17.021Z,100259.59
2023-03-17T21:43:05.050Z,100257.03
2023-03-17T21:45:51.261Z,100255.78
2023-03-17T21:48:39.807Z,100254.16
2023-03-17T21:51:25.675Z,100261.00
2023-03-17T21:54:13.097Z,100262.75
2023-03-17T21:56:58.427Z,100252.72
2023-03-17T21:59:46.173Z,100253.75
2023-03-17T22:02:31.290Z,100253.00
2023-03-17T22:05:16.816Z,100247.03
2023-03-17T22:08:02.082Z,100254.03
2023-03-17T22:10:48.074Z,100241.88
2023-03-17T22:13:33.000Z,100238.59
2023-03-17T22:16:19.895Z,100232.41
2023-03-17T22:19:05.205Z,100232.03
2023-03-17T22:21:51.655Z,100238.19
2023-03-17T22:24:39.172Z,100234.78
2023-03-17T22:27:24.308Z,100240.47
2023-03-17T22:30:10.809Z,100240.41
2023-03-17T22:32:56.366Z,100233.22
2023-03-17T22:35:42.826Z,100239.44
2023-03-17T22:38:27.921Z,100233.50
2023-03-17T22:41:17.250Z,100236.94
2023-03-17T22:44:03.425Z,100242.63
2023-03-17T22:46:48.584Z,100246.31
2023-03-17T22:49:33.616Z,100246.09
2023-03-17T22:52:19.235Z,100250.78
2023-03-17T22:55:04.297Z,100252.44
2023-03-17T22:57:50.268Z,100253.66
2023-03-17T23:00:36.096Z,100256.13
2023-03-17T23:03:21.395Z,100261.13
2023-03-17T23:06:07.803Z,100259.81
2023-03-17T23:08:53.086Z,100253.66
2023-03-17T23:11:38.169Z,100249.63
2023-03-17T23:14:23.338Z,100258.25
2023-03-17T23:17:09.055Z,100260.06
2023-03-17T23:19:54.097Z,100261.03
2023-03-17T23:22:39.471Z,100262.25
2023-03-17T23:25:25.871Z,100258.72
2023-03-17T23:28:10.735Z,100274.50
2023-03-17T23:30:55.923Z,100273.81
2023-03-17T23:33:41.143Z,100273.75
2023-03-17T23:39:29.949Z,100272.81
2023-03-17T23:42:17.593Z,100278.66
2023-03-17T23:45:04.012Z,100265.69
2023-03-17T23:47:49.932Z,100273.91
2023-03-17T23:50:35.088Z,100271.41
2023-03-17T23:53:22.596Z,100269.69
2023-03-17T23:56:09.583Z,100278.44
2023-03-17T23:58:54.605Z,100268.94
